sensor_id;sensor_type;location;lat;lon;timestamp;pressure;altitude;pressure_sealevel;temperature;humidity
70302;BME280;57706;56.326;43.882;2023-07-13T00:00:42;99569.25;;;11.36;94.05
70302;BME280;57706;56.326;43.882;2023-07-13T00:03:08;99577.16;;;11.36;93.48
70302;BME280;57706;56.326;43.882;2023-07-13T00:05:35;99571.19;;;11.49;93.30
70302;BME280;57706;56.326;43.882;2023-07-13T00:08:01;99570.59;;;11.47;93.15
70302;BME280;57706;56.326;43.882;2023-07-13T00:10:27;99572.84;;;11.50;92.76
70302;BME280;57706;56.326;43.882;2023-07-13T00:12:53;99575.09;;;11.53;92.51
70302;BME280;57706;56.326;43.882;2023-07-13T00:15:23;99578.09;;;11.28;93.08
70302;BME280;57706;56.326;43.882;2023-07-13T00:17:52;99580.56;;;11.30;93.57
70302;BME280;57706;56.326;43.882;2023-07-13T00:20:20;99576.25;;;11.07;94.47
70302;BME280;57706;56.326;43.882;2023-07-13T00:22:48;99575.22;;;11.23;94.19
70302;BME280;57706;56.326;43.882;2023-07-13T00:25:15;99580.59;;;11.15;94.26
70302;BME280;57706;56.326;43.882;2023-07-13T00:27:43;99573.75;;;10.99;94.46
70302;BME280;57706;56.326;43.882;2023-07-13T00:30:10;99575.31;;;10.93;95.23
70302;BME280;57706;56.326;43.882;2023-07-13T00:32:37;99573.13;;;10.97;95.41
70302;BME280;57706;56.326;43.882;2023-07-13T00:35:03;99579.28;;;10.89;95.55
70302;BME280;57706;56.326;43.882;2023-07-13T00:37:31;99583.44;;;10.98;95.85
70302;BME280;57706;56.326;43.882;2023-07-13T00:39:57;99590.03;;;11.09;94.79
70302;BME280;57706;56.326;43.882;2023-07-13T00:42:23;99590.22;;;11.08;94.74
70302;BME280;57706;56.326;43.882;2023-07-13T00:45:07;99582.19;;;10.94;94.37
70302;BME280;57706;56.326;43.882;2023-07-13T00:47:51;99589.53;;;10.99;94.84
70302;BME280;57706;56.326;43.882;2023-07-13T00:50:19;99588.56;;;10.85;95.34
70302;BME280;57706;56.326;43.882;2023-07-13T00:52:49;99584.47;;;10.82;95.68
70302;BME280;57706;56.326;43.882;2023-07-13T00:55:17;99586.81;;;10.92;95.22
70302;BME280;57706;56.326;43.882;2023-07-13T00:57:44;99597.97;;;10.94;94.77
70302;BME280;57706;56.326;43.882;2023-07-13T01:00:10;99594.25;;;10.88;94.80
70302;BME280;57706;56.326;43.882;2023-07-13T01:02:40;99591.34;;;10.83;95.39
70302;BME280;57706;56.326;43.882;2023-07-13T01:05:12;99583.75;;;10.88;95.36
70302;BME280;57706;56.326;43.882;2023-07-13T01:07:40;99589.19;;;10.87;95.90
70302;BME280;57706;56.326;43.882;2023-07-13T01:10:08;99596.84;;;11.04;94.55
70302;BME280;57706;56.326;43.882;2023-07-13T01:12:34;99584.88;;;11.01;94.39
70302;BME280;57706;56.326;43.882;2023-07-13T01:15:04;99583.66;;;10.97;94.20
70302;BME280;57706;56.326;43.882;2023-07-13T01:17:31;99588.25;;;10.95;95.03
70302;BME280;57706;56.326;43.882;2023-07-13T01:19:58;99590.88;;;11.10;93.73
70302;BME280;57706;56.326;43.882;2023-07-13T01:22:26;99592.38;;;11.19;93.24
70302;BME280;57706;56.326;43.882;2023-07-13T01:24:54;99591.75;;;11.17;93.18
70302;BME280;57706;56.326;43.882;2023-07-13T01:27:23;99579.66;;;11.23;93.14
70302;BME280;57706;56.326;43.882;2023-07-13T01:29:52;99590.25;;;11.29;92.25
70302;BME280;57706;56.326;43.882;2023-07-13T01:32:21;99595.34;;;11.16;92.82
70302;BME280;57706;56.326;43.882;2023-07-13T01:34:51;99594.59;;;11.00;93.65
70302;BME280;57706;56.326;43.882;2023-07-13T01:37:21;99595.34;;;11.16;93.74
70302;BME280;57706;56.326;43.882;2023-07-13T01:39:47;99595.34;;;11.16;93.54
70302;BME280;57706;56.326;43.882;2023-07-13T01:42:13;99594.31;;;11.32;92.57
70302;BME280;57706;56.326;43.882;2023-07-13T01:44:40;99600.59;;;11.53;91.12
70302;BME280;57706;56.326;43.882;2023-07-13T01:47:07;99608.69;;;11.51;90.73
70302;BME280;57706;56.326;43.882;2023-07-13T01:49:33;99596.84;;;11.40;91.49
70302;BME280;57706;56.326;43.882;2023-07-13T01:51:59;99602.41;;;11.52;91.21
70302;BME280;57706;56.326;43.882;2023-07-13T01:54:25;99602.66;;;11.57;90.84
70302;BME280;57706;56.326;43.882;2023-07-13T01:56:51;99599.41;;;11.55;90.69
70302;BME280;57706;56.326;43.882;2023-07-13T01:59:17;99609.13;;;11.55;91.21
70302;BME280;57706;56.326;43.882;2023-07-13T02:01:43;99598.91;;;11.67;90.36
70302;BME280;57706;56.326;43.882;2023-07-13T02:04:09;99591.72;;;11.82;89.54
70302;BME280;57706;56.326;43.882;2023-07-13T02:06:36;99585.84;;;11.80;89.31
70302;BME280;57706;56.326;43.882;2023-07-13T02:09:04;99592.41;;;11.91;88.71
70302;BME280;57706;56.326;43.882;2023-07-13T02:11:32;99575.78;;;11.91;88.57
70302;BME280;57706;56.326;43.882;2023-07-13T02:14:02;99574.97;;;11.83;89.50
70302;BME280;57706;56.326;43.882;2023-07-13T02:16:31;99571.78;;;11.95;88.91
70302;BME280;57706;56.326;43.882;2023-07-13T02:18:57;99566.41;;;12.03;88.38
70302;BME280;57706;56.326;43.882;2023-07-13T02:21:23;99567.75;;;11.99;88.83
70302;BME280;57706;56.326;43.882;2023-07-13T02:23:52;99566.66;;;12.08;88.15
70302;BME280;57706;56.326;43.882;2023-07-13T02:26:19;99564.25;;;12.14;87.75
70302;BME280;57706;56.326;43.882;2023-07-13T02:28:45;99561.44;;;12.22;87.77
70302;BME280;57706;56.326;43.882;2023-07-13T02:31:14;99573.63;;;12.23;87.67
70302;BME280;57706;56.326;43.882;2023-07-13T02:33:40;99572.34;;;12.12;88.03
70302;BME280;57706;56.326;43.882;2023-07-13T02:36:06;99571.63;;;12.25;87.62
70302;BME280;57706;56.326;43.882;2023-07-13T02:38:33;99579.75;;;12.30;87.69
70302;BME280;57706;56.326;43.882;2023-07-13T02:41:05;99579.72;;;12.23;87.40
70302;BME280;57706;56.326;43.882;2023-07-13T02:43:32;99574.72;;;12.35;87.08
70302;BME280;57706;56.326;43.882;2023-07-13T02:45:59;99572.94;;;12.43;86.64
70302;BME280;57706;56.326;43.882;2023-07-13T02:48:30;99578.22;;;12.43;86.91
70302;BME280;57706;56.326;43.882;2023-07-13T02:50:57;99580.28;;;12.54;85.98
70302;BME280;57706;56.326;43.882;2023-07-13T02:53:23;99575.00;;;12.54;86.29
70302;BME280;57706;56.326;43.882;2023-07-13T02:55:48;99563.69;;;12.60;86.12
70302;BME280;57706;56.326;43.882;2023-07-13T02:58:14;99569.81;;;12.68;85.69
70302;BME280;57706;56.326;43.882;2023-07-13T03:00:46;99569.84;;;12.81;85.49
70302;BME280;57706;56.326;43.882;2023-07-13T03:03:14;99577.47;;;13.11;83.70
70302;BME280;57706;56.326;43.882;2023-07-13T03:05:42;99579.72;;;13.28;82.58
70302;BME280;57706;56.326;43.882;2023-07-13T03:08:09;99572.03;;;13.33;82.41
70302;BME280;57706;56.326;43.882;2023-07-13T03:10:35;99567.97;;;13.37;81.71
70302;BME280;57706;56.326;43.882;2023-07-13T03:13:02;99576.97;;;13.56;81.37
70302;BME280;57706;56.326;43.882;2023-07-13T03:15:28;99583.75;;;13.24;82.06
70302;BME280;57706;56.326;43.882;2023-07-13T03:17:56;99579.72;;;13.28;81.32
70302;BME280;57706;56.326;43.882;2023-07-13T03:20:22;99579.31;;;13.31;80.95
70302;BME280;57706;56.326;43.882;2023-07-13T03:22:48;99574.44;;;13.34;81.13
70302;BME280;57706;56.326;43.882;2023-07-13T03:25:15;99585.00;;;13.34;81.19
70302;BME280;57706;56.326;43.882;2023-07-13T03:27:42;99584.78;;;13.22;82.13
70302;BME280;57706;56.326;43.882;2023-07-13T03:30:09;99589.53;;;13.47;81.48
70302;BME280;57706;56.326;43.882;2023-07-13T03:32:35;99595.63;;;13.55;80.11
70302;BME280;57706;56.326;43.882;2023-07-13T03:35:01;99596.88;;;13.99;78.63
70302;BME280;57706;56.326;43.882;2023-07-13T03:37:30;99592.16;;;14.15;77.43
70302;BME280;57706;56.326;43.882;2023-07-13T03:39:56;99591.16;;;14.16;76.96
70302;BME280;57706;56.326;43.882;2023-07-13T03:42:22;99591.19;;;13.96;77.23
70302;BME280;57706;56.326;43.882;2023-07-13T03:44:48;99580.78;;;14.01;76.89
70302;BME280;57706;56.326;43.882;2023-07-13T03:47:18;99582.59;;;14.14;77.40
70302;BME280;57706;56.326;43.882;2023-07-13T03:49:45;99586.63;;;14.37;76.19
70302;BME280;57706;56.326;43.882;2023-07-13T03:52:12;99588.09;;;14.32;75.97
70302;BME280;57706;56.326;43.882;2023-07-13T03:54:38;99590.66;;;14.59;75.63
70302;BME280;57706;56.326;43.882;2023-07-13T03:57:05;99584.88;;;14.83;74.36
70302;BME280;57706;56.326;43.882;2023-07-13T03:59:34;99593.44;;;14.78;73.82
70302;BME280;57706;56.326;43.882;2023-07-13T04:02:01;99579.22;;;14.72;74.10
70302;BME280;57706;56.326;43.882;2023-07-13T04:04:27;99589.28;;;14.37;74.54
70302;BME280;57706;56.326;43.882;2023-07-13T04:06:53;99583.72;;;14.65;74.30
70302;BME280;57706;56.326;43.882;2023-07-13T04:09:19;99589.03;;;14.58;74.31
70302;BME280;57706;56.326;43.882;2023-07-13T04:11:46;99592.06;;;14.62;73.61
70302;BME280;57706;56.326;43.882;2023-07-13T04:14:12;99582.88;;;14.65;73.85
70302;BME280;57706;56.326;43.882;2023-07-13T04:16:38;99578.16;;;14.87;73.29
70302;BME280;57706;56.326;43.882;2023-07-13T04:19:04;99579.19;;;14.86;73.29
70302;BME280;57706;56.326;43.882;2023-07-13T04:21:31;99587.25;;;14.98;72.51
70302;BME280;57706;56.326;43.882;2023-07-13T04:23:57;99583.66;;;14.85;72.51
70302;BME280;57706;56.326;43.882;2023-07-13T04:26:23;99585.81;;;15.02;71.89
70302;BME280;57706;56.326;43.882;2023-07-13T04:28:50;99586.53;;;14.77;72.73
70302;BME280;57706;56.326;43.882;2023-07-13T04:31:16;99584.28;;;14.81;72.78
70302;BME280;57706;56.326;43.882;2023-07-13T04:33:42;99594.63;;;15.28;71.24
70302;BME280;57706;56.326;43.882;2023-07-13T04:36:09;99595.91;;;15.51;70.64
70302;BME280;57706;56.326;43.882;2023-07-13T04:38:35;99593.16;;;15.39;70.05
70302;BME280;57706;56.326;43.882;2023-07-13T04:41:06;99598.56;;;15.19;70.47
70302;BME280;57706;56.326;43.882;2023-07-13T04:43:32;99587.50;;;15.28;70.43
70302;BME280;57706;56.326;43.882;2023-07-13T04:46:04;99594.41;;;15.87;68.41
70302;BME280;57706;56.326;43.882;2023-07-13T04:48:30;99585.22;;;16.15;67.19
70302;BME280;57706;56.326;43.882;2023-07-13T04:50:57;99588.31;;;16.31;66.86
70302;BME280;57706;56.326;43.882;2023-07-13T04:53:24;99586.69;;;16.30;66.40
70302;BME280;57706;56.326;43.882;2023-07-13T04:55:50;99584.72;;;16.62;66.01
70302;BME280;57706;56.326;43.882;2023-07-13T04:58:16;99598.78;;;16.44;65.82
70302;BME280;57706;56.326;43.882;2023-07-13T05:00:43;99596.00;;;16.58;65.58
70302;BME280;57706;56.326;43.882;2023-07-13T05:03:08;99604.00;;;16.88;64.39
70302;BME280;57706;56.326;43.882;2023-07-13T05:05:34;99601.00;;;16.47;65.14
70302;BME280;57706;56.326;43.882;2023-07-13T05:08:00;99596.06;;;16.51;64.66
70302;BME280;57706;56.326;43.882;2023-07-13T05:10:27;99602.50;;;17.42;62.05
70302;BME280;57706;56.326;43.882;2023-07-13T05:12:53;99595.06;;;17.86;61.12
70302;BME280;57706;56.326;43.882;2023-07-13T05:15:23;99589.88;;;18.27;60.09
70302;BME280;57706;56.326;43.882;2023-07-13T05:17:49;99590.13;;;18.26;59.27
70302;BME280;57706;56.326;43.882;2023-07-13T05:20:17;99583.50;;;18.52;58.43
70302;BME280;57706;56.326;43.882;2023-07-13T05:22:43;99586.50;;;18.85;57.32
70302;BME280;57706;56.326;43.882;2023-07-13T05:25:09;99584.22;;;18.77;57.66
70302;BME280;57706;56.326;43.882;2023-07-13T05:27:36;99588.78;;;18.93;56.67
70302;BME280;57706;56.326;43.882;2023-07-13T05:30:03;99595.72;;;19.70;54.69
70302;BME280;57706;56.326;43.882;2023-07-13T05:32:32;99581.41;;;19.59;53.92
70302;BME280;57706;56.326;43.882;2023-07-13T05:34:59;99588.00;;;18.93;55.06
70302;BME280;57706;56.326;43.882;2023-07-13T05:37:24;99583.44;;;19.51;53.50
70302;BME280;57706;56.326;43.882;2023-07-13T05:39:50;99586.00;;;19.46;54.38
70302;BME280;57706;56.326;43.882;2023-07-13T05:42:16;99580.50;;;19.36;54.27
70302;BME280;57706;56.326;43.882;2023-07-13T05:44:42;99579.88;;;19.63;53.96
70302;BME280;57706;56.326;43.882;2023-07-13T05:47:08;99583.56;;;19.10;54.66
70302;BME280;57706;56.326;43.882;2023-07-13T05:49:34;99583.47;;;18.93;55.39
70302;BME280;57706;56.326;43.882;2023-07-13T05:51:59;99572.94;;;19.45;54.17
70302;BME280;57706;56.326;43.882;2023-07-13T05:54:26;99578.34;;;20.01;53.08
70302;BME280;57706;56.326;43.882;2023-07-13T05:56:52;99575.19;;;19.70;52.32
70302;BME280;57706;56.326;43.882;2023-07-13T05:59:18;99569.47;;;20.57;50.74
70302;BME280;57706;56.326;43.882;2023-07-13T06:01:44;99574.91;;;21.83;47.30
70302;BME280;57706;56.326;43.882;2023-07-13T06:04:10;99571.28;;;20.79;49.34
70302;BME280;57706;56.326;43.882;2023-07-13T06:06:36;99564.16;;;20.40;50.28
70302;BME280;57706;56.326;43.882;2023-07-13T06:09:02;99561.47;;;21.40;47.98
70302;BME280;57706;56.326;43.882;2023-07-13T06:11:28;99551.56;;;23.06;43.77
70302;BME280;57706;56.326;43.882;2023-07-13T06:13:56;99563.13;;;21.13;47.42
70302;BME280;57706;56.326;43.882;2023-07-13T06:16:23;99557.41;;;20.55;49.57
70302;BME280;57706;56.326;43.882;2023-07-13T06:18:49;99550.59;;;20.42;50.36
70302;BME280;57706;56.326;43.882;2023-07-13T06:21:21;99550.72;;;20.30;50.61
70302;BME280;57706;56.326;43.882;2023-07-13T06:23:49;99554.59;;;20.67;50.30
70302;BME280;57706;56.326;43.882;2023-07-13T06:26:17;99547.59;;;19.59;51.93
70302;BME280;57706;56.326;43.882;2023-07-13T06:28:43;99550.47;;;19.40;53.05
70302;BME280;57706;56.326;43.882;2023-07-13T06:31:11;99548.22;;;20.45;50.04
70302;BME280;57706;56.326;43.882;2023-07-13T06:33:38;99548.88;;;21.35;49.06
70302;BME280;57706;56.326;43.882;2023-07-13T06:36:05;99548.88;;;21.35;48.28
70302;BME280;57706;56.326;43.882;2023-07-13T06:38:32;99556.03;;;20.07;50.12
70302;BME280;57706;56.326;43.882;2023-07-13T06:40:58;99547.84;;;20.81;48.75
70302;BME280;57706;56.326;43.882;2023-07-13T06:43:24;99547.41;;;20.00;50.00
70302;BME280;57706;56.326;43.882;2023-07-13T06:45:55;99557.13;;;19.72;51.40
70302;BME280;57706;56.326;43.882;2023-07-13T06:48:21;99554.03;;;19.46;51.80
70302;BME280;57706;56.326;43.882;2023-07-13T06:50:48;99553.00;;;19.47;52.30
70302;BME280;57706;56.326;43.882;2023-07-13T06:53:15;99557.59;;;19.69;51.66
70302;BME280;57706;56.326;43.882;2023-07-13T06:55:43;99557.50;;;19.30;52.79
70302;BME280;57706;56.326;43.882;2023-07-13T06:58:10;99579.66;;;19.47;52.72
70302;BME280;57706;56.326;43.882;2023-07-13T07:00:36;99560.00;;;19.36;53.34
70302;BME280;57706;56.326;43.882;2023-07-13T07:03:02;99563.47;;;19.71;52.01
70302;BME280;57706;56.326;43.882;2023-07-13T07:05:29;99568.22;;;20.03;51.60
70302;BME280;57706;56.326;43.882;2023-07-13T07:07:55;99566.72;;;19.73;51.84
70302;BME280;57706;56.326;43.882;2023-07-13T07:10:21;99574.22;;;19.76;51.89
70302;BME280;57706;56.326;43.882;2023-07-13T07:12:47;99569.38;;;19.73;52.15
70302;BME280;57706;56.326;43.882;2023-07-13T07:15:13;99578.50;;;19.26;52.15
70302;BME280;57706;56.326;43.882;2023-07-13T07:17:39;99569.97;;;19.12;53.14
70302;BME280;57706;56.326;43.882;2023-07-13T07:20:06;99582.19;;;18.96;53.03
70302;BME280;57706;56.326;43.882;2023-07-13T07:22:32;99581.06;;;19.21;53.41
70302;BME280;57706;56.326;43.882;2023-07-13T07:24:58;99580.25;;;18.91;54.41
70302;BME280;57706;56.326;43.882;2023-07-13T07:27:25;99582.97;;;18.96;54.34
70302;BME280;57706;56.326;43.882;2023-07-13T07:29:51;99575.59;;;18.98;53.92
70302;BME280;57706;56.326;43.882;2023-07-13T07:32:17;99590.31;;;19.47;52.83
70302;BME280;57706;56.326;43.882;2023-07-13T07:34:43;99587.84;;;19.29;52.94
70302;BME280;57706;56.326;43.882;2023-07-13T07:37:10;99586.59;;;19.48;52.71
70302;BME280;57706;56.326;43.882;2023-07-13T07:39:37;99592.00;;;20.05;50.76
70302;BME280;57706;56.326;43.882;2023-07-13T07:42:04;99590.47;;;20.76;48.96
70302;BME280;57706;56.326;43.882;2023-07-13T07:44:31;99593.22;;;22.02;46.03
70302;BME280;57706;56.326;43.882;2023-07-13T07:46:58;99586.94;;;23.03;43.71
70302;BME280;57706;56.326;43.882;2023-07-13T07:49:24;99594.13;;;25.38;38.66
70302;BME280;57706;56.326;43.882;2023-07-13T07:51:50;99599.03;;;24.09;39.99
70302;BME280;57706;56.326;43.882;2023-07-13T07:54:17;99590.47;;;23.14;42.42
70302;BME280;57706;56.326;43.882;2023-07-13T07:56:43;99596.38;;;21.93;44.64
70302;BME280;57706;56.326;43.882;2023-07-13T07:59:09;99595.00;;;21.85;44.63
70302;BME280;57706;56.326;43.882;2023-07-13T08:01:35;99597.09;;;22.21;43.52
70302;BME280;57706;56.326;43.882;2023-07-13T08:04:01;99592.91;;;21.60;45.02
70302;BME280;57706;56.326;43.882;2023-07-13T08:06:27;99589.72;;;21.03;46.77
70302;BME280;57706;56.326;43.882;2023-07-13T08:08:55;99597.66;;;20.08;49.34
70302;BME280;57706;56.326;43.882;2023-07-13T08:11:21;99598.09;;;19.20;52.30
70302;BME280;57706;56.326;43.882;2023-07-13T08:13:49;99599.38;;;19.17;52.66
70302;BME280;57706;56.326;43.882;2023-07-13T08:16:15;99607.66;;;19.67;51.69
70302;BME280;57706;56.326;43.882;2023-07-13T08:18:41;99600.72;;;19.66;51.68
70302;BME280;57706;56.326;43.882;2023-07-13T08:21:08;99608.81;;;20.05;49.98
70302;BME280;57706;56.326;43.882;2023-07-13T08:23:34;99592.97;;;21.05;47.23
70302;BME280;57706;56.326;43.882;2023-07-13T08:26:01;99590.13;;;24.90;40.29
70302;BME280;57706;56.326;43.882;2023-07-13T08:28:28;99599.88;;;26.39;36.86
70302;BME280;57706;56.326;43.882;2023-07-13T08:30:54;99584.25;;;24.78;38.72
70302;BME280;57706;56.326;43.882;2023-07-13T08:33:21;99589.16;;;23.58;41.34
70302;BME280;57706;56.326;43.882;2023-07-13T08:35:50;99600.81;;;22.20;43.64
70302;BME280;57706;56.326;43.882;2023-07-13T08:38:17;99590.13;;;20.89;47.12
70302;BME280;57706;56.326;43.882;2023-07-13T08:40:45;99605.38;;;19.24;51.50
70302;BME280;57706;56.326;43.882;2023-07-13T08:43:22;99592.16;;;18.89;53.04
70302;BME280;57706;56.326;43.882;2023-07-13T08:46:14;99599.28;;;18.06;55.83
70302;BME280;57706;56.326;43.882;2023-07-13T08:54:00;99603.56;;;17.10;60.52
70302;BME280;57706;56.326;43.882;2023-07-13T08:56:29;99602.03;;;16.84;61.90
70302;BME280;57706;56.326;43.882;2023-07-13T08:59:15;99611.47;;;16.42;64.31
70302;BME280;57706;56.326;43.882;2023-07-13T09:04:26;99615.22;;;15.83;69.34
70302;BME280;57706;56.326;43.882;2023-07-13T09:09:49;99615.47;;;15.50;71.21
70302;BME280;57706;56.326;43.882;2023-07-13T09:12:29;99618.59;;;15.72;70.49
70302;BME280;57706;56.326;43.882;2023-07-13T09:14:58;99616.19;;;15.64;70.27
70302;BME280;57706;56.326;43.882;2023-07-13T09:17:49;99631.25;;;15.63;69.95
70302;BME280;57706;56.326;43.882;2023-07-13T09:20:31;99623.09;;;15.65;70.66
70302;BME280;57706;56.326;43.882;2023-07-13T09:23:01;99622.72;;;15.61;71.16
70302;BME280;57706;56.326;43.882;2023-07-13T09:25:34;99623.38;;;15.57;71.29
70302;BME280;57706;56.326;43.882;2023-07-13T09:28:15;99620.06;;;15.61;70.31
70302;BME280;57706;56.326;43.882;2023-07-13T09:30:52;99622.28;;;15.64;70.81
70302;BME280;57706;56.326;43.882;2023-07-13T09:33:21;99622.66;;;15.68;70.46
70302;BME280;57706;56.326;43.882;2023-07-13T09:35:46;99626.53;;;15.98;69.80
70302;BME280;57706;56.326;43.882;2023-07-13T09:38:18;99624.34;;;16.57;68.12
70302;BME280;57706;56.326;43.882;2023-07-13T09:43:25;99622.44;;;18.47;61.37
70302;BME280;57706;56.326;43.882;2023-07-13T09:45:50;99617.28;;;19.22;57.72
70302;BME280;57706;56.326;43.882;2023-07-13T09:48:17;99626.56;;;19.83;56.32
70302;BME280;57706;56.326;43.882;2023-07-13T09:50:44;99623.81;;;20.73;53.97
70302;BME280;57706;56.326;43.882;2023-07-13T09:53:18;99616.63;;;20.52;53.70
70302;BME280;57706;56.326;43.882;2023-07-13T09:55:48;99618.75;;;19.76;54.76
70302;BME280;57706;56.326;43.882;2023-07-13T09:58:21;99630.59;;;19.51;56.65
70302;BME280;57706;56.326;43.882;2023-07-13T10:01:01;99617.72;;;19.02;57.73
70302;BME280;57706;56.326;43.882;2023-07-13T10:03:32;99623.16;;;18.30;58.75
70302;BME280;57706;56.326;43.882;2023-07-13T10:06:20;99623.34;;;17.69;60.14
70302;BME280;57706;56.326;43.882;2023-07-13T10:08:49;99626.94;;;17.01;61.32
70302;BME280;57706;56.326;43.882;2023-07-13T10:13:52;99632.38;;;16.32;64.36
70302;BME280;57706;56.326;43.882;2023-07-13T10:16:21;99624.56;;;16.37;64.71
70302;BME280;57706;56.326;43.882;2023-07-13T10:19:10;99629.00;;;16.62;64.55
70302;BME280;57706;56.326;43.882;2023-07-13T10:21:41;99627.94;;;17.19;62.93
70302;BME280;57706;56.326;43.882;2023-07-13T10:24:21;99626.72;;;19.01;57.86
70302;BME280;57706;56.326;43.882;2023-07-13T10:29:27;99622.53;;;21.86;48.30
70302;BME280;57706;56.326;43.882;2023-07-13T10:31:55;99624.22;;;22.46;47.63
70302;BME280;57706;56.326;43.882;2023-07-13T10:34:23;99621.59;;;23.41;44.94
70302;BME280;57706;56.326;43.882;2023-07-13T10:36:49;99629.09;;;23.59;43.57
70302;BME280;57706;56.326;43.882;2023-07-13T10:39:26;99629.91;;;25.33;39.83
70302;BME280;57706;56.326;43.882;2023-07-13T10:42:01;99610.47;;;31.69;28.66
70302;BME280;57706;56.326;43.882;2023-07-13T10:44:31;99609.13;;;31.27;29.15
70302;BME280;57706;56.326;43.882;2023-07-13T10:47:03;99605.97;;;27.27;33.39
70302;BME280;57706;56.326;43.882;2023-07-13T10:49:33;99606.59;;;25.23;37.22
70302;BME280;57706;56.326;43.882;2023-07-13T10:52:01;99609.81;;;24.75;38.85
70302;BME280;57706;56.326;43.882;2023-07-13T10:54:30;99608.56;;;24.52;39.46
70302;BME280;57706;56.326;43.882;2023-07-13T10:57:16;99602.56;;;23.63;40.87
70302;BME280;57706;56.326;43.882;2023-07-13T10:59:47;99609.06;;;22.57;43.64
70302;BME280;57706;56.326;43.882;2023-07-13T11:02:25;99602.78;;;21.27;46.52
70302;BME280;57706;56.326;43.882;2023-07-13T11:04:54;99607.13;;;20.39;49.45
70302;BME280;57706;56.326;43.882;2023-07-13T11:07:29;99604.44;;;19.65;52.22
70302;BME280;57706;56.326;43.882;2023-07-13T11:09:57;99607.13;;;18.78;54.29
70302;BME280;57706;56.326;43.882;2023-07-13T11:17:34;99605.75;;;19.97;52.82
70302;BME280;57706;56.326;43.882;2023-07-13T11:20:22;99615.56;;;22.87;46.01
70302;BME280;57706;56.326;43.882;2023-07-13T11:22:50;99605.75;;;26.22;38.63
70302;BME280;57706;56.326;43.882;2023-07-13T11:27:50;99607.88;;;24.86;38.20
70302;BME280;57706;56.326;43.882;2023-07-13T11:38:24;99609.09;;;20.71;47.36
70302;BME280;57706;56.326;43.882;2023-07-13T11:40:54;99612.78;;;20.65;47.88
70302;BME280;57706;56.326;43.882;2023-07-13T11:43:21;99617.38;;;19.73;49.88
70302;BME280;57706;56.326;43.882;2023-07-13T11:45:51;99614.41;;;19.40;51.06
70302;BME280;57706;56.326;43.882;2023-07-13T11:48:26;99615.31;;;19.46;51.93
70302;BME280;57706;56.326;43.882;2023-07-13T11:53:24;99614.31;;;18.77;54.28
70302;BME280;57706;56.326;43.882;2023-07-13T11:55:51;99616.91;;;18.36;55.54
70302;BME280;57706;56.326;43.882;2023-07-13T11:58:23;99623.41;;;18.52;55.19
70302;BME280;57706;56.326;43.882;2023-07-13T12:00:50;99632.66;;;18.26;54.55
70302;BME280;57706;56.326;43.882;2023-07-13T12:03:22;99619.22;;;17.97;55.92
70302;BME280;57706;56.326;43.882;2023-07-13T12:06:21;99630.66;;;17.97;56.78
70302;BME280;57706;56.326;43.882;2023-07-13T12:08:49;99627.06;;;17.92;57.13
70302;BME280;57706;56.326;43.882;2023-07-13T12:11:16;99632.91;;;17.58;57.54
70302;BME280;57706;56.326;43.882;2023-07-13T12:13:43;99626.47;;;17.23;58.33
70302;BME280;57706;56.326;43.882;2023-07-13T12:16:30;99630.50;;;17.26;58.37
70302;BME280;57706;56.326;43.882;2023-07-13T12:19:01;99632.22;;;17.20;58.80
70302;BME280;57706;56.326;43.882;2023-07-13T12:21:37;99635.31;;;17.17;58.55
70302;BME280;57706;56.326;43.882;2023-07-13T12:24:03;99624.28;;;17.32;58.20
70302;BME280;57706;56.326;43.882;2023-07-13T12:26:31;99634.19;;;17.25;58.69
70302;BME280;57706;56.326;43.882;2023-07-13T12:29:00;99635.09;;;17.49;57.97
70302;BME280;57706;56.326;43.882;2023-07-13T12:31:30;99624.19;;;17.81;57.72
70302;BME280;57706;56.326;43.882;2023-07-13T12:34:03;99629.31;;;18.07;56.58
70302;BME280;57706;56.326;43.882;2023-07-13T12:36:35;99634.28;;;18.27;56.13
70302;BME280;57706;56.326;43.882;2023-07-13T12:41:51;99627.38;;;18.67;54.54
70302;BME280;57706;56.326;43.882;2023-07-13T12:44:40;99620.22;;;18.67;54.51
70302;BME280;57706;56.326;43.882;2023-07-13T12:47:11;99623.78;;;19.43;52.68
70302;BME280;57706;56.326;43.882;2023-07-13T12:49:41;99632.22;;;21.04;48.16
70302;BME280;57706;56.326;43.882;2023-07-13T12:52:21;99626.81;;;22.30;45.40
70302;BME280;57706;56.326;43.882;2023-07-13T12:55:02;99619.47;;;25.26;39.20
70302;BME280;57706;56.326;43.882;2023-07-13T12:57:29;99621.03;;;26.95;34.69
70302;BME280;57706;56.326;43.882;2023-07-13T12:59:55;99617.31;;;28.51;32.92
70302;BME280;57706;56.326;43.882;2023-07-13T13:02:33;99611.84;;;25.39;36.87
70302;BME280;57706;56.326;43.882;2023-07-13T13:05:02;99612.47;;;23.36;41.12
70302;BME280;57706;56.326;43.882;2023-07-13T13:07:30;99613.38;;;21.16;45.58
70302;BME280;57706;56.326;43.882;2023-07-13T13:09:56;99613.91;;;20.29;47.70
70302;BME280;57706;56.326;43.882;2023-07-13T13:12:22;99608.09;;;19.01;50.81
70302;BME280;57706;56.326;43.882;2023-07-13T13:14:51;99611.50;;;18.43;52.98
70302;BME280;57706;56.326;43.882;2023-07-13T13:17:23;99618.56;;;17.59;55.32
70302;BME280;57706;56.326;43.882;2023-07-13T13:19:51;99612.09;;;17.43;56.54
70302;BME280;57706;56.326;43.882;2023-07-13T13:22:20;99613.09;;;17.30;57.16
70302;BME280;57706;56.326;43.882;2023-07-13T13:24:46;99608.78;;;16.98;58.54
70302;BME280;57706;56.326;43.882;2023-07-13T13:27:17;99628.97;;;16.81;60.49
70302;BME280;57706;56.326;43.882;2023-07-13T13:29:44;99613.03;;;16.69;61.78
70302;BME280;57706;56.326;43.882;2023-07-13T13:32:14;99617.28;;;16.32;63.78
70302;BME280;57706;56.326;43.882;2023-07-13T13:34:41;99621.31;;;16.16;64.83
70302;BME280;57706;56.326;43.882;2023-07-13T13:37:20;99628.56;;;16.02;66.26